Time;durP1;ratioP1;P1;durP2;ratioP2;P2;SDS_P1;SDS_P2;PMS_P1;PMS_P2;Temp;Humidity;BMP_temperature;BMP_pressure;BME280_temperature;BME280_humidity;BME280_pressure;Samples;Min_cycle;Max_cycle;Signal;HPM_P1;HPM_P2
2024/01/30 00:00:50;;;;;;;17.25;7.80;;;;;;;;;;5018609;28;20274;-78
2024/01/30 00:03:15;;;;;;;22.48;8.55;;;;;;;;;;4999551;28;20447;-78
2024/01/30 00:05:41;;;;;;;16.13;8.13;;;;;;;;;;5017627;28;20037;-78
2024/01/30 00:08:06;;;;;;;17.75;8.55;;;;;;;;;;5019529;28;20025;-77
2024/01/30 00:10:31;;;;;;;16.90;9.00;;;;;;;;;;5017556;28;20036;-78
2024/01/30 00:12:56;;;;;;;16.93;8.07;;;;;;;;;;4999319;28;20118;-78
2024/01/30 00:15:22;;;;;;;11.93;6.23;;;;;;;;;;5000004;28;20303;-78
2024/01/30 00:17:47;;;;;;;16.05;8.13;;;;;;;;;;5018195;28;20270;-77
2024/01/30 00:20:13;;;;;;;13.32;7.50;;;;;;;;;;5017444;28;20508;-77
2024/01/30 00:22:38;;;;;;;17.63;8.43;;;;;;;;;;5016974;28;20053;-78
2024/01/30 00:25:04;;;;;;;17.40;8.27;;;;;;;;;;5000017;28;20032;-78
2024/01/30 00:27:29;;;;;;;18.25;9.20;;;;;;;;;;5017909;28;20105;-78
2024/01/30 00:29:54;;;;;;;15.27;8.02;;;;;;;;;;5017538;28;20033;-78
2024/01/30 00:32:20;;;;;;;20.27;8.68;;;;;;;;;;5018035;28;20109;-78
2024/01/30 00:34:45;;;;;;;17.85;8.32;;;;;;;;;;5017606;28;20044;-78
2024/01/30 00:37:10;;;;;;;16.10;8.52;;;;;;;;;;5018388;28;20466;-78
2024/01/30 00:39:36;;;;;;;20.58;9.18;;;;;;;;;;5017539;28;20025;-77
2024/01/30 00:42:01;;;;;;;20.05;8.15;;;;;;;;;;5015632;28;20034;-77
2024/01/30 00:44:27;;;;;;;18.20;8.48;;;;;;;;;;5017093;28;20034;-77
2024/01/30 00:46:52;;;;;;;19.08;9.20;;;;;;;;;;4998983;28;20040;-78
2024/01/30 00:49:17;;;;;;;15.55;7.75;;;;;;;;;;5016692;28;20022;-78
2024/01/30 00:51:43;;;;;;;16.70;8.52;;;;;;;;;;5017669;28;20037;-77
2024/01/30 00:54:08;;;;;;;19.05;7.60;;;;;;;;;;4998337;28;20021;-78
2024/01/30 00:56:33;;;;;;;13.95;7.45;;;;;;;;;;5017243;28;20028;-78
2024/01/30 00:58:59;;;;;;;16.92;8.02;;;;;;;;;;5017647;28;20374;-78
2024/01/30 01:01:24;;;;;;;16.90;7.82;;;;;;;;;;5017342;28;20083;-78
2024/01/30 01:03:49;;;;;;;16.20;8.10;;;;;;;;;;5017274;28;20029;-78
2024/01/30 01:06:14;;;;;;;16.08;7.57;;;;;;;;;;5018097;28;20278;-78
2024/01/30 01:08:40;;;;;;;15.02;7.60;;;;;;;;;;5017274;28;20479;-77
2024/01/30 01:11:05;;;;;;;14.87;7.23;;;;;;;;;;5016330;28;20030;-77
2024/01/30 01:13:30;;;;;;;14.45;7.38;;;;;;;;;;4998137;28;20321;-77
2024/01/30 01:15:56;;;;;;;12.73;6.45;;;;;;;;;;5017244;28;20092;-77
2024/01/30 01:18:21;;;;;;;17.27;7.07;;;;;;;;;;5016404;28;20034;-77
2024/01/30 01:20:46;;;;;;;14.73;7.85;;;;;;;;;;5016536;28;20032;-77
2024/01/30 01:23:11;;;;;;;13.73;7.50;;;;;;;;;;4999916;28;20029;-78
2024/01/30 01:25:37;;;;;;;17.60;8.55;;;;;;;;;;5017027;28;20037;-77
2024/01/30 01:28:03;;;;;;;15.37;8.20;;;;;;;;;;5016542;28;20537;-77
2024/01/30 01:30:29;;;;;;;17.23;7.00;;;;;;;;;;5017057;28;20313;-78
2024/01/30 01:33:00;;;;;;;16.13;7.82;;;;;;;;;;5017312;28;20507;-78
2024/01/30 01:35:25;;;;;;;10.90;6.30;;;;;;;;;;5017075;28;20140;-77
2024/01/30 01:38:00;;;;;;;15.60;7.40;;;;;;;;;;4999253;28;20053;-78
2024/01/30 01:40:26;;;;;;;12.57;5.82;;;;;;;;;;4999542;28;20112;-78
2024/01/30 01:42:52;;;;;;;18.13;7.85;;;;;;;;;;4998646;28;20401;-78
2024/01/30 01:45:18;;;;;;;14.32;6.50;;;;;;;;;;5016829;28;20109;-78
2024/01/30 01:47:45;;;;;;;19.30;8.10;;;;;;;;;;4999033;28;20389;-78
2024/01/30 01:50:12;;;;;;;15.18;7.70;;;;;;;;;;5017292;28;20025;-78
2024/01/30 01:52:40;;;;;;;14.23;7.57;;;;;;;;;;5000987;28;20085;-80
2024/01/30 01:55:05;;;;;;;13.23;7.22;;;;;;;;;;4999973;28;20119;-77
2024/01/30 01:57:31;;;;;;;18.15;8.10;;;;;;;;;;4998480;28;20022;-78
2024/01/30 01:59:57;;;;;;;15.95;8.00;;;;;;;;;;4998781;28;20018;-78
2024/01/30 02:02:24;;;;;;;17.17;7.07;;;;;;;;;;5015819;28;20100;-78
2024/01/30 02:04:50;;;;;;;17.92;7.60;;;;;;;;;;5016306;28;20404;-78
2024/01/30 02:07:15;;;;;;;19.48;8.30;;;;;;;;;;5016161;28;20025;-78
2024/01/30 02:09:40;;;;;;;14.30;7.63;;;;;;;;;;4999240;28;20036;-78
2024/01/30 02:12:06;;;;;;;15.20;8.27;;;;;;;;;;5016903;28;20018;-77
2024/01/30 02:14:31;;;;;;;15.55;7.38;;;;;;;;;;5016704;28;20271;-78
2024/01/30 02:16:56;;;;;;;15.98;7.75;;;;;;;;;;4999567;28;20029;-77
2024/01/30 02:19:22;;;;;;;15.20;7.60;;;;;;;;;;4999706;28;20481;-77
2024/01/30 02:21:47;;;;;;;18.35;8.27;;;;;;;;;;4997645;28;20346;-80
2024/01/30 02:24:12;;;;;;;18.88;7.18;;;;;;;;;;5016166;28;20026;-79
2024/01/30 02:26:38;;;;;;;13.30;6.93;;;;;;;;;;5018129;28;20033;-78
2024/01/30 02:29:03;;;;;;;13.77;7.33;;;;;;;;;;5018271;28;20076;-78
2024/01/30 02:31:28;;;;;;;14.77;8.00;;;;;;;;;;5018046;28;20255;-79
2024/01/30 02:33:53;;;;;;;15.33;7.43;;;;;;;;;;5018277;28;20485;-79
2024/01/30 02:36:18;;;;;;;7.63;3.92;;;;;;;;;;4999891;28;20801;-80
2024/01/30 02:38:46;;;;;;;15.48;7.70;;;;;;;;;;5015505;28;20093;-79
2024/01/30 02:41:11;;;;;;;13.80;6.95;;;;;;;;;;5017188;28;20397;-80
2024/01/30 02:43:36;;;;;;;17.20;7.85;;;;;;;;;;4999243;28;20145;-78
2024/01/30 02:46:01;;;;;;;14.43;6.45;;;;;;;;;;5016652;28;20546;-78
2024/01/30 02:48:27;;;;;;;15.23;7.95;;;;;;;;;;4999963;28;20030;-78
2024/01/30 02:50:52;;;;;;;16.48;8.13;;;;;;;;;;4999955;28;20021;-78
2024/01/30 02:53:17;;;;;;;11.80;5.32;;;;;;;;;;5016634;28;20099;-78
2024/01/30 02:55:42;;;;;;;15.77;7.03;;;;;;;;;;5016930;28;20060;-78
2024/01/30 02:58:08;;;;;;;12.63;6.75;;;;;;;;;;5016804;28;20026;-78
2024/01/30 03:00:33;;;;;;;13.27;6.57;;;;;;;;;;4999687;28;20021;-79
2024/01/30 03:02:58;;;;;;;21.50;8.32;;;;;;;;;;5017589;28;20030;-79
2024/01/30 03:05:23;;;;;;;15.10;6.45;;;;;;;;;;5017350;28;20072;-78
2024/01/30 03:07:49;;;;;;;15.55;8.15;;;;;;;;;;5016899;28;20044;-78
2024/01/30 03:10:14;;;;;;;18.63;8.38;;;;;;;;;;4999659;28;20026;-78
2024/01/30 03:12:39;;;;;;;18.93;7.67;;;;;;;;;;5013757;28;20034;-79
2024/01/30 03:15:05;;;;;;;16.50;8.07;;;;;;;;;;5015080;28;20266;-78
2024/01/30 03:17:30;;;;;;;17.80;7.78;;;;;;;;;;4998002;28;20267;-78
2024/01/30 03:19:55;;;;;;;17.17;7.45;;;;;;;;;;5015841;28;20207;-78
2024/01/30 03:22:20;;;;;;;18.87;8.10;;;;;;;;;;5014046;28;20021;-77
2024/01/30 03:24:46;;;;;;;14.13;7.83;;;;;;;;;;5016541;28;20286;-77
2024/01/30 03:27:11;;;;;;;16.58;7.50;;;;;;;;;;5015366;28;20263;-78
2024/01/30 03:29:36;;;;;;;12.82;6.82;;;;;;;;;;4997806;28;20033;-77
2024/01/30 03:32:03;;;;;;;18.75;8.15;;;;;;;;;;5015753;28;20397;-78
2024/01/30 03:34:29;;;;;;;13.55;6.30;;;;;;;;;;5019325;28;20022;-77
2024/01/30 03:36:54;;;;;;;20.03;7.37;;;;;;;;;;5017427;28;20056;-77
2024/01/30 03:39:19;;;;;;;17.48;8.15;;;;;;;;;;5020243;28;20251;-79
2024/01/30 03:41:44;;;;;;;17.67;7.67;;;;;;;;;;5021425;28;20037;-79
2024/01/30 03:44:10;;;;;;;16.83;7.68;;;;;;;;;;5020799;28;20298;-78
2024/01/30 03:46:35;;;;;;;18.73;7.82;;;;;;;;;;5003836;28;20033;-79
2024/01/30 03:49:00;;;;;;;15.65;7.25;;;;;;;;;;5020350;28;20396;-77
2024/01/30 03:51:26;;;;;;;18.73;8.00;;;;;;;;;;5002259;28;20092;-78
2024/01/30 03:53:51;;;;;;;16.35;7.47;;;;;;;;;;5002316;28;20076;-79
2024/01/30 03:56:16;;;;;;;16.05;6.22;;;;;;;;;;5019604;28;20035;-78
2024/01/30 03:58:41;;;;;;;14.02;6.38;;;;;;;;;;5002416;28;20037;-79
2024/01/30 04:01:07;;;;;;;17.17;7.80;;;;;;;;;;5018483;28;20040;-77
2024/01/30 04:03:32;;;;;;;17.35;7.47;;;;;;;;;;5002689;28;20018;-79
2024/01/30 04:05:58;;;;;;;15.27;7.70;;;;;;;;;;5002557;28;20025;-79
2024/01/30 04:08:23;;;;;;;16.92;6.65;;;;;;;;;;5018512;28;20283;-78
2024/01/30 04:10:48;;;;;;;11.15;6.85;;;;;;;;;;5019046;28;20064;-78
2024/01/30 04:13:14;;;;;;;10.05;5.35;;;;;;;;;;5018146;28;20033;-78
2024/01/30 04:15:39;;;;;;;16.90;7.05;;;;;;;;;;5003231;28;20084;-79
2024/01/30 04:18:05;;;;;;;17.42;7.70;;;;;;;;;;5020775;28;20048;-79
2024/01/30 04:20:30;;;;;;;12.52;6.32;;;;;;;;;;5003582;28;20551;-79
2024/01/30 04:22:55;;;;;;;14.60;7.38;;;;;;;;;;5020839;28;20025;-78
2024/01/30 04:25:21;;;;;;;14.10;7.50;;;;;;;;;;5021092;28;20028;-79
2024/01/30 04:27:46;;;;;;;16.10;7.03;;;;;;;;;;5021346;28;20049;-79
2024/01/30 04:30:11;;;;;;;16.95;7.97;;;;;;;;;;5021009;28;20034;-79
2024/01/30 04:32:37;;;;;;;15.88;8.02;;;;;;;;;;5020929;28;20026;-79
2024/01/30 04:35:03;;;;;;;12.60;5.65;;;;;;;;;;5020850;28;20026;-79
2024/01/30 04:37:28;;;;;;;15.77;7.47;;;;;;;;;;5021129;28;20026;-79
2024/01/30 04:39:53;;;;;;;16.58;8.20;;;;;;;;;;5021052;28;20022;-79
2024/01/30 04:42:18;;;;;;;14.45;6.47;;;;;;;;;;5020419;28;20033;-79
2024/01/30 04:44:44;;;;;;;15.73;7.50;;;;;;;;;;5001400;28;20121;-79
2024/01/30 04:47:11;;;;;;;16.27;7.73;;;;;;;;;;5020781;28;20290;-79
2024/01/30 04:49:36;;;;;;;10.27;5.15;;;;;;;;;;5002896;28;20287;-80
2024/01/30 04:52:01;;;;;;;18.05;7.55;;;;;;;;;;5017725;28;20468;-79
2024/01/30 04:54:26;;;;;;;14.75;6.45;;;;;;;;;;4999968;28;20036;-78
2024/01/30 04:56:52;;;;;;;13.77;6.10;;;;;;;;;;5018273;28;20544;-78
2024/01/30 04:59:17;;;;;;;13.27;7.30;;;;;;;;;;5018438;28;20746;-78
2024/01/30 05:01:42;;;;;;;15.80;7.40;;;;;;;;;;5018393;28;20322;-79
2024/01/30 05:04:08;;;;;;;12.90;6.85;;;;;;;;;;5001365;28;20022;-78
2024/01/30 05:06:34;;;;;;;18.38;8.27;;;;;;;;;;5017907;28;20500;-79
2024/01/30 05:08:59;;;;;;;9.10;4.97;;;;;;;;;;5001369;28;20129;-77
2024/01/30 05:11:24;;;;;;;17.65;8.23;;;;;;;;;;5000593;28;20318;-78
2024/01/30 05:13:49;;;;;;;17.17;7.70;;;;;;;;;;5019730;28;20021;-78
2024/01/30 05:16:15;;;;;;;16.80;7.53;;;;;;;;;;5017347;28;20349;-78
2024/01/30 05:18:40;;;;;;;8.70;4.35;;;;;;;;;;5018956;28;20041;-78
2024/01/30 05:21:05;;;;;;;17.58;7.95;;;;;;;;;;5018781;28;20033;-79
2024/01/30 05:23:30;;;;;;;11.25;6.25;;;;;;;;;;5017464;28;20053;-78
2024/01/30 05:25:56;;;;;;;17.23;7.28;;;;;;;;;;5017041;28;20032;-77
2024/01/30 05:28:21;;;;;;;18.45;7.60;;;;;;;;;;5017555;28;20026;-78
2024/01/30 05:30:46;;;;;;;12.17;5.23;;;;;;;;;;5016193;28;20108;-78
2024/01/30 05:33:12;;;;;;;10.60;5.97;;;;;;;;;;4998426;28;20293;-78
2024/01/30 05:35:37;;;;;;;14.50;7.10;;;;;;;;;;4999812;28;20029;-77
2024/01/30 05:38:03;;;;;;;14.48;6.90;;;;;;;;;;5018234;28;20025;-78
2024/01/30 05:40:28;;;;;;;17.33;6.90;;;;;;;;;;5017612;28;20025;-78
2024/01/30 05:42:53;;;;;;;21.53;7.90;;;;;;;;;;5017634;28;20061;-78
2024/01/30 05:45:18;;;;;;;11.38;6.75;;;;;;;;;;4999318;28;20267;-77
2024/01/30 05:47:44;;;;;;;12.97;7.00;;;;;;;;;;5017012;28;20104;-77
2024/01/30 05:50:09;;;;;;;13.00;6.85;;;;;;;;;;5017199;28;20271;-76
2024/01/30 05:52:34;;;;;;;15.55;6.88;;;;;;;;;;5016470;28;20029;-78
2024/01/30 05:54:59;;;;;;;14.02;7.47;;;;;;;;;;5016294;28;20021;-77
2024/01/30 05:57:25;;;;;;;13.15;6.13;;;;;;;;;;5015892;28;20076;-77
2024/01/30 05:59:51;;;;;;;13.77;7.50;;;;;;;;;;5015126;28;20045;-78
2024/01/30 06:02:17;;;;;;;11.63;6.28;;;;;;;;;;5015869;28;20030;-79
2024/01/30 06:04:42;;;;;;;18.67;8.02;;;;;;;;;;5015984;28;20529;-77
2024/01/30 06:07:07;;;;;;;13.27;7.18;;;;;;;;;;5015053;28;20040;-77
2024/01/30 06:09:33;;;;;;;11.18;6.32;;;;;;;;;;5015542;28;20033;-76
2024/01/30 06:11:58;;;;;;;10.48;5.53;;;;;;;;;;5014304;28;20076;-77
2024/01/30 06:14:23;;;;;;;14.30;7.22;;;;;;;;;;5015155;28;20428;-78
2024/01/30 06:16:49;;;;;;;9.57;5.35;;;;;;;;;;4996822;28;20401;-78
2024/01/30 06:19:15;;;;;;;11.95;6.07;;;;;;;;;;5014193;28;20057;-76
2024/01/30 06:21:40;;;;;;;10.02;5.82;;;;;;;;;;5014945;28;20022;-79
2024/01/30 06:24:05;;;;;;;17.65;7.20;;;;;;;;;;5016379;28;20033;-79
2024/01/30 06:26:30;;;;;;;12.35;6.30;;;;;;;;;;5015574;28;20029;-80
2024/01/30 06:28:56;;;;;;;11.82;6.03;;;;;;;;;;5017782;28;20026;-78
2024/01/30 06:31:21;;;;;;;16.57;7.80;;;;;;;;;;5017153;28;20040;-79
2024/01/30 06:33:47;;;;;;;12.70;6.75;;;;;;;;;;5015573;28;20268;-79
2024/01/30 06:36:12;;;;;;;16.33;6.63;;;;;;;;;;4997420;28;20029;-79
2024/01/30 06:38:38;;;;;;;19.20;10.50;;;;;;;;;;4999132;28;20053;-78
2024/01/30 06:41:03;;;;;;;11.47;5.67;;;;;;;;;;5017340;28;20029;-78
2024/01/30 06:43:28;;;;;;;8.80;4.68;;;;;;;;;;4999035;28;20263;-78
2024/01/30 06:45:54;;;;;;;16.23;7.60;;;;;;;;;;5017017;28;20052;-77
2024/01/30 06:48:19;;;;;;;14.65;7.32;;;;;;;;;;5015490;28;20251;-78
2024/01/30 06:50:45;;;;;;;17.88;7.97;;;;;;;;;;5015806;28;20026;-78
2024/01/30 06:53:10;;;;;;;15.50;7.07;;;;;;;;;;4998770;28;20098;-78
2024/01/30 06:55:36;;;;;;;14.60;7.37;;;;;;;;;;5016039;28;20069;-76
2024/01/30 06:58:01;;;;;;;14.02;6.50;;;;;;;;;;5014747;28;20263;-77
2024/01/30 07:00:26;;;;;;;14.45;6.57;;;;;;;;;;5014121;28;20363;-76
2024/01/30 07:02:51;;;;;;;13.23;5.57;;;;;;;;;;5013862;28;20392;-77
2024/01/30 07:05:17;;;;;;;7.60;4.32;;;;;;;;;;5013666;28;20695;-78
2024/01/30 07:07:42;;;;;;;14.10;7.10;;;;;;;;;;5015123;28;20454;-77
2024/01/30 07:10:08;;;;;;;13.35;6.15;;;;;;;;;;5017857;28;20551;-75
2024/01/30 07:12:33;;;;;;;11.60;6.78;;;;;;;;;;4999978;28;20022;-77
2024/01/30 07:14:59;;;;;;;14.30;6.55;;;;;;;;;;4999839;28;20396;-77
2024/01/30 07:17:24;;;;;;;16.48;7.32;;;;;;;;;;4999874;28;20084;-77
2024/01/30 07:19:50;;;;;;;16.42;7.45;;;;;;;;;;5017185;28;20025;-77
2024/01/30 07:22:15;;;;;;;13.77;7.33;;;;;;;;;;5017236;28;20548;-77
2024/01/30 07:24:47;;;;;;;16.73;6.90;;;;;;;;;;5017806;28;20774;-77
2024/01/30 07:27:14;;;;;;;13.45;6.10;;;;;;;;;;4999863;28;20286;-77
2024/01/30 07:29:39;;;;;;;15.35;6.13;;;;;;;;;;5017448;28;20022;-77
2024/01/30 07:32:05;;;;;;;14.02;6.85;;;;;;;;;;4999745;28;20087;-77
2024/01/30 07:34:30;;;;;;;10.05;5.43;;;;;;;;;;5017168;28;20022;-77
2024/01/30 07:36:55;;;;;;;15.10;7.38;;;;;;;;;;4999623;28;20029;-77
2024/01/30 07:39:20;;;;;;;18.73;6.90;;;;;;;;;;5018663;28;20026;-78
2024/01/30 07:41:46;;;;;;;15.60;7.05;;;;;;;;;;5018680;28;20256;-78
2024/01/30 07:44:11;;;;;;;16.55;7.10;;;;;;;;;;5000984;28;20116;-78
2024/01/30 07:46:36;;;;;;;17.80;7.07;;;;;;;;;;5000513;28;20033;-78
2024/01/30 07:49:01;;;;;;;18.07;6.53;;;;;;;;;;5019247;28;20385;-78
2024/01/30 07:51:28;;;;;;;14.55;7.13;;;;;;;;;;5019065;28;20299;-79
2024/01/30 07:53:53;;;;;;;11.98;6.38;;;;;;;;;;5019437;28;20053;-78
2024/01/30 07:56:18;;;;;;;15.35;7.05;;;;;;;;;;5018765;28;20026;-78
2024/01/30 07:58:44;;;;;;;17.92;7.22;;;;;;;;;;5019296;28;20036;-78
2024/01/30 08:01:10;;;;;;;10.45;5.00;;;;;;;;;;5016508;28;20026;-77
2024/01/30 08:03:35;;;;;;;15.32;7.50;;;;;;;;;;5016053;28;20042;-78
2024/01/30 08:06:01;;;;;;;13.07;6.35;;;;;;;;;;5016245;28;20079;-77
2024/01/30 08:08:26;;;;;;;13.73;7.18;;;;;;;;;;5016125;28;20083;-77
2024/01/30 08:10:52;;;;;;;17.10;7.38;;;;;;;;;;4999729;28;20032;-77
2024/01/30 08:13:17;;;;;;;8.75;4.63;;;;;;;;;;4998340;28;20123;-77
2024/01/30 08:15:42;;;;;;;42.07;12.70;;;;;;;;;;4998303;28;20489;-78
2024/01/30 08:18:07;;;;;;;16.45;6.50;;;;;;;;;;5015693;28;20738;-77
2024/01/30 08:20:33;;;;;;;15.77;6.28;;;;;;;;;;4998394;28;20481;-76
2024/01/30 08:23:00;;;;;;;18.33;6.57;;;;;;;;;;5016353;28;20057;-78
2024/01/30 08:25:25;;;;;;;16.15;6.60;;;;;;;;;;5017395;28;20292;-78
2024/01/30 08:27:51;;;;;;;17.38;7.22;;;;;;;;;;5016294;28;20100;-77
2024/01/30 08:30:16;;;;;;;16.80;6.70;;;;;;;;;;5015333;28;20160;-77
2024/01/30 08:32:41;;;;;;;14.55;7.00;;;;;;;;;;5015694;28;20033;-78
2024/01/30 08:35:06;;;;;;;13.35;7.03;;;;;;;;;;5015786;28;20128;-77
2024/01/30 08:37:32;;;;;;;10.40;5.15;;;;;;;;;;4998090;28;20053;-77
2024/01/30 08:39:57;;;;;;;13.23;6.33;;;;;;;;;;5015942;28;20021;-78
2024/01/30 08:42:22;;;;;;;16.48;6.35;;;;;;;;;;4997950;28;20286;-77
2024/01/30 08:44:53;;;;;;;17.20;7.20;;;;;;;;;;4997845;28;20088;-77
2024/01/30 08:47:18;;;;;;;10.50;6.00;;;;;;;;;;5015875;28;20032;-77
2024/01/30 08:49:44;;;;;;;15.57;7.65;;;;;;;;;;5014999;28;20105;-76
2024/01/30 08:52:10;;;;;;;12.75;7.07;;;;;;;;;;5014859;28;20481;-75
2024/01/30 08:54:35;;;;;;;14.48;6.65;;;;;;;;;;5015974;28;20018;-76
2024/01/30 08:57:00;;;;;;;13.63;7.45;;;;;;;;;;5015026;28;20022;-77
2024/01/30 08:59:26;;;;;;;13.95;6.82;;;;;;;;;;4981164;28;20370;-77
2024/01/30 09:01:54;;;;;;;12.90;6.57;;;;;;;;;;5015170;28;20057;-76
2024/01/30 09:04:19;;;;;;;13.10;6.70;;;;;;;;;;5015137;28;20705;-76
2024/01/30 09:06:45;;;;;;;12.80;6.33;;;;;;;;;;4998310;28;20072;-76
2024/01/30 09:09:10;;;;;;;9.95;4.32;;;;;;;;;;5015336;28;20361;-76
2024/01/30 09:11:35;;;;;;;15.80;6.07;;;;;;;;;;5015062;28;20030;-77
2024/01/30 09:14:01;;;;;;;13.52;6.78;;;;;;;;;;4997166;28;20266;-77
2024/01/30 09:16:26;;;;;;;9.23;5.23;;;;;;;;;;5015075;28;20037;-76
2024/01/30 09:18:51;;;;;;;13.50;6.40;;;;;;;;;;5015061;28;20314;-76
2024/01/30 09:21:16;;;;;;;15.87;7.17;;;;;;;;;;4997548;28;20275;-75
2024/01/30 09:23:41;;;;;;;10.30;5.33;;;;;;;;;;5014483;28;20329;-75
2024/01/30 09:26:07;;;;;;;13.43;7.13;;;;;;;;;;5014608;28;20271;-76
2024/01/30 09:28:32;;;;;;;14.63;7.35;;;;;;;;;;4996950;28;20263;-78
2024/01/30 09:30:57;;;;;;;14.97;7.00;;;;;;;;;;5013060;28;20034;-77
2024/01/30 09:33:22;;;;;;;21.38;7.60;;;;;;;;;;5016851;28;20331;-78
2024/01/30 09:35:48;;;;;;;14.30;7.43;;;;;;;;;;5016368;28;20075;-76
2024/01/30 09:38:13;;;;;;;15.25;7.35;;;;;;;;;;4997325;28;20263;-74
2024/01/30 09:40:38;;;;;;;13.80;6.25;;;;;;;;;;4997221;28;20074;-75
2024/01/30 09:43:03;;;;;;;11.68;6.38;;;;;;;;;;5013861;28;20044;-74
2024/01/30 09:45:29;;;;;;;19.95;8.90;;;;;;;;;;4996524;28;20052;-74
2024/01/30 09:47:55;;;;;;;12.35;6.43;;;;;;;;;;4996621;28;20041;-75
2024/01/30 09:50:20;;;;;;;12.98;6.85;;;;;;;;;;5014145;28;20030;-75
2024/01/30 09:52:47;;;;;;;11.63;5.47;;;;;;;;;;5013789;28;20362;-77
2024/01/30 09:55:13;;;;;;;15.80;7.47;;;;;;;;;;5014757;28;20499;-78
2024/01/30 09:57:39;;;;;;;14.23;6.75;;;;;;;;;;4996121;28;20121;-77
2024/01/30 10:00:07;;;;;;;14.35;6.80;;;;;;;;;;5014314;28;20018;-77
2024/01/30 10:02:32;;;;;;;14.75;6.90;;;;;;;;;;5012377;28;20397;-77
2024/01/30 10:04:59;;;;;;;8.82;4.85;;;;;;;;;;5013293;28;20026;-77
2024/01/30 10:07:24;;;;;;;12.13;5.75;;;;;;;;;;5013928;28;20030;-77
2024/01/30 10:09:49;;;;;;;12.00;6.45;;;;;;;;;;5014458;28;20033;-76
2024/01/30 10:12:15;;;;;;;14.20;6.75;;;;;;;;;;4996565;28;20087;-76
2024/01/30 10:14:41;;;;;;;13.13;6.60;;;;;;;;;;4996189;28;20053;-77
2024/01/30 10:17:10;;;;;;;17.15;7.65;;;;;;;;;;5013783;28;20115;-77
2024/01/30 10:19:36;;;;;;;12.18;6.55;;;;;;;;;;5013516;28;20036;-77
2024/01/30 10:22:03;;;;;;;8.75;5.28;;;;;;;;;;5014593;28;20025;-78
2024/01/30 10:24:29;;;;;;;10.23;5.72;;;;;;;;;;4999445;28;20432;-79
2024/01/30 10:26:55;;;;;;;10.63;5.80;;;;;;;;;;4998490;28;20021;-78
2024/01/30 10:29:21;;;;;;;17.42;7.35;;;;;;;;;;5000037;28;20030;-78
2024/01/30 10:31:57;;;;;;;16.15;7.00;;;;;;;;;;5000258;28;20034;-77
2024/01/30 10:34:22;;;;;;;56.65;10.63;;;;;;;;;;5015315;28;20485;-78
2024/01/30 10:36:50;;;;;;;10.90;5.10;;;;;;;;;;4997053;28;20038;-78
2024/01/30 10:39:17;;;;;;;9.25;4.80;;;;;;;;;;5016721;28;20255;-80
2024/01/30 10:41:44;;;;;;;14.13;6.88;;;;;;;;;;5017458;28;20030;-80
2024/01/30 10:44:10;;;;;;;17.20;7.28;;;;;;;;;;5019693;28;20022;-78
2024/01/30 10:46:38;;;;;;;10.00;5.70;;;;;;;;;;5017995;28;20037;-78
2024/01/30 10:49:04;;;;;;;14.35;7.57;;;;;;;;;;5017561;28;20080;-78
2024/01/30 10:51:31;;;;;;;14.80;7.28;;;;;;;;;;5020754;28;20061;-79
2024/01/30 10:53:57;;;;;;;12.95;6.80;;;;;;;;;;5020118;28;20508;-77
2024/01/30 10:56:23;;;;;;;16.20;7.88;;;;;;;;;;5002699;28;20028;-78
2024/01/30 10:58:53;;;;;;;12.15;6.97;;;;;;;;;;5003132;28;20032;-78
2024/01/30 11:01:22;;;;;;;10.15;5.47;;;;;;;;;;5020530;28;20037;-78
2024/01/30 11:03:49;;;;;;;11.70;7.05;;;;;;;;;;5020268;28;20552;-77
2024/01/30 11:06:18;;;;;;;13.43;5.47;;;;;;;;;;5017225;28;20076;-75
2024/01/30 11:08:43;;;;;;;12.48;6.63;;;;;;;;;;5017314;28;20147;-75
2024/01/30 11:11:09;;;;;;;12.80;6.35;;;;;;;;;;5016636;28;20113;-76
2024/01/30 11:13:35;;;;;;;11.18;5.72;;;;;;;;;;4999048;28;20022;-74
2024/01/30 11:16:05;;;;;;;14.77;6.93;;;;;;;;;;4998883;28;20457;-77
2024/01/30 11:18:31;;;;;;;15.05;7.25;;;;;;;;;;4998034;28;20046;-75
2024/01/30 11:20:58;;;;;;;12.25;5.55;;;;;;;;;;5016158;28;20022;-76
2024/01/30 11:23:23;;;;;;;15.40;7.85;;;;;;;;;;4998772;28;20034;-75
2024/01/30 11:25:49;;;;;;;13.55;6.65;;;;;;;;;;5016576;28;20025;-76
2024/01/30 11:28:15;;;;;;;10.20;5.50;;;;;;;;;;5018088;28;20026;-77
2024/01/30 11:30:41;;;;;;;12.77;6.40;;;;;;;;;;5000192;28;20061;-76
2024/01/30 11:33:08;;;;;;;12.40;6.57;;;;;;;;;;4999060;28;20054;-74
2024/01/30 11:35:39;;;;;;;11.30;6.25;;;;;;;;;;5015959;28;20026;-75
2024/01/30 11:38:05;;;;;;;13.63;7.45;;;;;;;;;;5016187;28;20342;-75
2024/01/30 11:40:32;;;;;;;12.38;5.70;;;;;;;;;;5016412;28;20076;-75
2024/01/30 11:43:00;;;;;;;18.92;7.93;;;;;;;;;;5016294;28;20025;-75
2024/01/30 11:45:26;;;;;;;16.67;7.82;;;;;;;;;;5016146;28;20053;-75
2024/01/30 11:47:52;;;;;;;16.17;6.88;;;;;;;;;;5015893;28;20029;-74
2024/01/30 11:50:17;;;;;;;13.70;6.55;;;;;;;;;;5016018;28;20037;-76
2024/01/30 11:52:43;;;;;;;15.13;7.55;;;;;;;;;;5015915;28;20029;-76
2024/01/30 11:55:09;;;;;;;14.85;7.63;;;;;;;;;;5015239;28;20024;-76
2024/01/30 11:57:35;;;;;;;13.50;6.85;;;;;;;;;;5016190;28;20053;-76
2024/01/30 12:00:03;;;;;;;10.07;5.28;;;;;;;;;;4998461;28;20473;-76
2024/01/30 12:02:28;;;;;;;17.80;8.18;;;;;;;;;;5016252;28;20076;-76
2024/01/30 12:04:54;;;;;;;12.93;6.55;;;;;;;;;;5015846;28;20026;-77
2024/01/30 12:07:19;;;;;;;15.75;7.40;;;;;;;;;;5015750;28;20066;-76
2024/01/30 12:09:53;;;;;;;12.38;6.60;;;;;;;;;;5015708;28;20052;-76
2024/01/30 12:12:18;;;;;;;;;;;;;;;;;;5016326;28;20060;-76
2024/01/30 12:14:43;;;;;;;17.33;7.33;;;;;;;;;;4998034;28;19949;-76
2024/01/30 12:17:09;;;;;;;12.80;6.70;;;;;;;;;;5015759;28;20092;-76
2024/01/30 12:19:34;;;;;;;17.63;8.27;;;;;;;;;;4997844;28;20014;-76
2024/01/30 12:21:59;;;;;;;14.85;7.53;;;;;;;;;;5015545;28;20435;-76
2024/01/30 12:24:26;;;;;;;12.85;6.53;;;;;;;;;;5015320;28;20037;-76
2024/01/30 12:26:51;;;;;;;15.57;7.70;;;;;;;;;;5016179;28;20022;-75
2024/01/30 12:29:17;;;;;;;16.35;7.50;;;;;;;;;;4997694;28;20045;-76
2024/01/30 12:31:43;;;;;;;17.27;7.40;;;;;;;;;;4997749;28;20022;-76
2024/01/30 12:34:08;;;;;;;16.45;8.60;;;;;;;;;;5015240;28;20485;-76
2024/01/30 12:36:34;;;;;;;17.67;8.70;;;;;;;;;;5015058;28;20021;-76
2024/01/30 12:39:00;;;;;;;16.63;8.25;;;;;;;;;;5015032;28;20350;-77
2024/01/30 12:41:29;;;;;;;15.15;7.85;;;;;;;;;;5015218;28;20049;-75
2024/01/30 12:43:54;;;;;;;18.00;7.78;;;;;;;;;;4997282;28;20105;-76
2024/01/30 12:46:20;;;;;;;16.17;7.82;;;;;;;;;;5015266;28;20060;-76
2024/01/30 12:48:45;;;;;;;11.90;6.22;;;;;;;;;;5015189;28;20072;-75
2024/01/30 12:51:10;;;;;;;16.52;8.15;;;;;;;;;;4997292;28;20022;-75
2024/01/30 12:53:36;;;;;;;19.23;8.13;;;;;;;;;;5014725;28;20084;-74
2024/01/30 12:56:01;;;;;;;14.57;7.63;;;;;;;;;;4997662;28;20485;-75
2024/01/30 12:58:26;;;;;;;14.02;5.85;;;;;;;;;;5014674;28;20084;-75
2024/01/30 13:00:53;;;;;;;11.83;6.00;;;;;;;;;;5014647;28;20026;-76
2024/01/30 13:03:19;;;;;;;13.48;6.47;;;;;;;;;;4997225;28;20247;-76
2024/01/30 13:05:44;;;;;;;14.30;6.25;;;;;;;;;;4996034;28;20539;-78
2024/01/30 13:08:09;;;;;;;18.20;7.78;;;;;;;;;;4996914;28;20445;-76
2024/01/30 13:10:34;;;;;;;16.10;7.72;;;;;;;;;;4996863;28;20485;-75
2024/01/30 13:13:00;;;;;;;15.80;7.57;;;;;;;;;;5014597;28;20157;-75
2024/01/30 13:15:25;;;;;;;16.30;8.18;;;;;;;;;;5014360;28;20299;-75
2024/01/30 13:17:50;;;;;;;14.90;6.90;;;;;;;;;;4996787;28;20025;-75
2024/01/30 13:20:20;;;;;;;13.57;6.72;;;;;;;;;;4997716;28;20045;-75
2024/01/30 13:22:47;;;;;;;9.57;5.35;;;;;;;;;;5014526;28;20493;-76
2024/01/30 13:25:12;;;;;;;13.88;7.35;;;;;;;;;;5014635;28;20033;-76
2024/01/30 13:27:38;;;;;;;13.18;6.78;;;;;;;;;;5017883;28;20022;-79
2024/01/30 13:30:04;;;;;;;16.60;8.20;;;;;;;;;;5015069;28;20018;-75
2024/01/30 13:32:29;;;;;;;15.40;7.63;;;;;;;;;;4996331;28;20394;-75
2024/01/30 13:34:54;;;;;;;14.17;7.33;;;;;;;;;;5014443;28;20024;-75
2024/01/30 13:37:20;;;;;;;19.00;7.40;;;;;;;;;;5014337;28;20353;-75
2024/01/30 13:39:45;;;;;;;17.15;8.13;;;;;;;;;;4996541;28;20290;-75
2024/01/30 13:42:10;;;;;;;20.03;8.83;;;;;;;;;;5014027;28;20056;-75
2024/01/30 13:44:35;;;;;;;10.00;5.47;;;;;;;;;;5013761;28;20267;-75
2024/01/30 13:47:01;;;;;;;15.35;7.75;;;;;;;;;;5014098;28;20282;-75
2024/01/30 13:49:27;;;;;;;12.88;6.22;;;;;;;;;;5013819;28;20109;-76
2024/01/30 13:51:52;;;;;;;15.00;7.88;;;;;;;;;;5014119;28;20383;-74
2024/01/30 13:54:17;;;;;;;12.38;6.43;;;;;;;;;;5013954;28;20532;-75
2024/01/30 13:56:42;;;;;;;17.20;7.67;;;;;;;;;;5014882;28;20037;-76
2024/01/30 13:59:07;;;;;;;16.67;6.90;;;;;;;;;;5017739;28;20244;-81
2024/01/30 14:01:33;;;;;;;18.10;8.20;;;;;;;;;;5004463;28;20262;-80
2024/01/30 14:03:58;;;;;;;15.52;7.32;;;;;;;;;;5008630;28;20046;-81
2024/01/30 14:06:24;;;;;;;16.92;7.53;;;;;;;;;;5001475;28;20033;-77
2024/01/30 14:08:49;;;;;;;15.18;8.15;;;;;;;;;;5014146;28;20032;-77
2024/01/30 14:11:14;;;;;;;16.40;7.83;;;;;;;;;;5014575;28;20500;-77
2024/01/30 14:13:39;;;;;;;16.67;8.33;;;;;;;;;;5015349;28;20747;-79
2024/01/30 14:16:05;;;;;;;15.57;7.85;;;;;;;;;;5014161;28;20769;-75
2024/01/30 14:18:30;;;;;;;17.77;8.18;;;;;;;;;;5013822;28;20040;-78
2024/01/30 14:20:55;;;;;;;18.13;7.97;;;;;;;;;;5014610;28;20485;-76